createdAt,value
2023-02-21T00:00:34.352Z,2.60
2023-02-21T00:03:19.710Z,2.40
2023-02-21T00:06:04.818Z,2.73
2023-02-21T00:08:50.415Z,2.30
2023-02-21T00:11:35.386Z,3.00
2023-02-21T00:14:20.658Z,3.37
2023-02-21T00:17:05.807Z,3.10
2023-02-21T00:19:51.130Z,2.90
2023-02-21T00:22:36.485Z,2.53
2023-02-21T00:25:22.061Z,3.03
2023-02-21T00:28:07.021Z,3.10
2023-02-21T00:30:52.366Z,2.80
2023-02-21T00:33:37.373Z,2.73
2023-02-21T00:36:22.716Z,2.50
2023-02-21T00:39:07.767Z,2.50
2023-02-21T00:41:52.918Z,3.00
2023-02-21T00:44:38.520Z,3.10
2023-02-21T00:47:23.762Z,2.87
2023-02-21T00:50:09.271Z,2.77
2023-02-21T00:52:54.257Z,2.97
2023-02-21T00:55:39.710Z,2.53
2023-02-21T00:58:25.068Z,2.73
2023-02-21T01:01:10.247Z,2.97
2023-02-21T01:03:55.482Z,2.90
2023-02-21T01:06:40.497Z,2.70
2023-02-21T01:09:25.525Z,2.80
2023-02-21T01:12:10.778Z,2.70
2023-02-21T01:14:55.967Z,2.73
2023-02-21T01:17:41.120Z,3.20
2023-02-21T01:20:26.743Z,3.00
2023-02-21T01:23:11.905Z,2.40
2023-02-21T01:25:57.043Z,3.00
2023-02-21T01:28:42.067Z,2.60
2023-02-21T01:31:27.318Z,3.17
2023-02-21T01:34:12.632Z,2.63
2023-02-21T01:37:01.107Z,2.50
2023-02-21T01:39:46.489Z,2.50
2023-02-21T01:42:31.807Z,2.60
2023-02-21T01:45:49.566Z,2.60
2023-02-21T01:48:39.337Z,2.80
2023-02-21T01:51:27.435Z,2.50
2023-02-21T01:54:13.791Z,2.93
2023-02-21T01:56:59.689Z,2.40
2023-02-21T01:59:45.916Z,2.60
2023-02-21T02:02:56.594Z,2.90
2023-02-21T02:05:43.212Z,2.70
2023-02-21T02:08:28.260Z,2.90
2023-02-21T02:11:29.541Z,2.57
2023-02-21T02:14:15.342Z,2.60
2023-02-21T02:16:53.156Z,3.20
2023-02-21T02:19:38.137Z,2.87
2023-02-21T02:22:36.011Z,2.43
2023-02-21T02:25:14.883Z,2.50
2023-02-21T02:27:47.396Z,2.33
2023-02-21T02:30:33.392Z,2.60
2023-02-21T02:33:09.838Z,2.90
2023-02-21T02:36:10.162Z,2.60
2023-02-21T02:38:47.428Z,2.67
2023-02-21T02:41:37.113Z,2.40
2023-02-21T02:44:16.038Z,2.47
2023-02-21T02:46:45.575Z,2.83
2023-02-21T02:49:23.669Z,3.03
2023-02-21T02:51:52.216Z,3.00
2023-02-21T02:54:19.008Z,2.70
2023-02-21T02:56:46.718Z,2.93
2023-02-21T02:59:20.626Z,3.10
2023-02-21T03:01:51.923Z,3.13
2023-02-21T03:04:43.574Z,3.10
2023-02-21T03:07:40.307Z,3.10
2023-02-21T03:10:39.940Z,3.73
2023-02-21T03:13:16.805Z,3.10
2023-02-21T03:15:56.216Z,3.83
2023-02-21T03:18:36.595Z,3.57
2023-02-21T03:21:10.195Z,3.13
2023-02-21T03:24:23.850Z,3.30
2023-02-21T03:27:01.133Z,3.70
2023-02-21T04:04:25.661Z,4.33
2023-02-21T04:07:41.970Z,4.40
2023-02-21T04:20:57.718Z,5.10
2023-02-21T04:24:03.268Z,4.30
2023-02-21T04:56:00.535Z,4.90
2023-02-21T04:58:31.174Z,5.07
2023-02-21T05:01:06.430Z,5.00
2023-02-21T05:03:33.964Z,5.40
2023-02-21T05:06:21.911Z,5.80
2023-02-21T05:09:28.268Z,5.40
2023-02-21T05:12:15.900Z,5.50
2023-02-21T05:14:45.912Z,5.67
2023-02-21T05:17:23.198Z,4.87
2023-02-21T05:19:53.215Z,5.23
2023-02-21T05:22:55.979Z,5.73
2023-02-21T05:25:34.316Z,5.97
2023-02-21T05:28:04.638Z,5.80
2023-02-21T05:34:52.060Z,5.50
2023-02-21T05:40:51.040Z,5.90
2023-02-21T05:43:21.951Z,5.53
2023-02-21T05:46:18.347Z,6.30
2023-02-21T05:48:49.127Z,5.93
2023-02-21T05:51:17.092Z,5.20
2023-02-21T05:53:50.074Z,6.73
2023-02-21T05:56:20.664Z,6.03
2023-02-21T06:08:53.153Z,6.23
2023-02-21T06:11:28.804Z,6.07
2023-02-21T06:14:00.938Z,6.47
2023-02-21T06:19:48.074Z,7.40
2023-02-21T06:22:15.457Z,5.80
2023-02-21T06:24:42.561Z,6.50
2023-02-21T06:27:09.842Z,5.97
2023-02-21T06:29:36.886Z,6.37
2023-02-21T06:32:09.625Z,6.17
2023-02-21T06:34:39.880Z,6.40
2023-02-21T06:37:07.353Z,6.63
2023-02-21T06:39:34.213Z,6.67
2023-02-21T06:42:01.241Z,6.57
2023-02-21T06:44:29.085Z,6.83
2023-02-21T06:46:55.972Z,6.83
2023-02-21T06:49:23.343Z,6.37
2023-02-21T06:51:51.272Z,7.00
2023-02-21T06:54:18.456Z,6.43
2023-02-21T06:56:45.258Z,6.60
2023-02-21T06:59:12.216Z,6.77
2023-02-21T07:01:39.153Z,7.17
2023-02-21T07:04:06.331Z,6.20
2023-02-21T07:06:35.026Z,6.83
2023-02-21T07:09:04.999Z,6.53
2023-02-21T07:11:50.406Z,7.13
2023-02-21T07:14:17.662Z,6.40
2023-02-21T07:16:47.634Z,5.90
2023-02-21T07:21:44.548Z,7.00
2023-02-21T07:24:11.692Z,6.40
2023-02-21T07:26:41.931Z,6.50
2023-02-21T07:29:15.311Z,6.23
2023-02-21T07:31:45.110Z,6.33
2023-02-21T07:34:32.960Z,6.50
2023-02-21T07:37:09.320Z,6.27
2023-02-21T07:39:51.631Z,6.67
2023-02-21T07:42:18.574Z,6.53
2023-02-21T07:44:51.256Z,6.50
2023-02-21T07:47:18.666Z,6.27
2023-02-21T07:49:46.050Z,6.00
2023-02-21T07:52:13.289Z,6.47
2023-02-21T07:54:41.132Z,5.63
2023-02-21T07:57:08.131Z,5.90
2023-02-21T07:59:35.487Z,6.97
2023-02-21T08:02:02.909Z,7.27
2023-02-21T08:04:30.231Z,5.73
2023-02-21T08:07:01.122Z,6.83
2023-02-21T08:09:28.433Z,6.60
2023-02-21T08:11:55.051Z,6.30
2023-02-21T08:14:22.485Z,6.40
2023-02-21T08:16:57.327Z,6.33
2023-02-21T08:19:24.489Z,6.70
2023-02-21T08:21:51.819Z,6.67
2023-02-21T08:24:26.460Z,5.83
2023-02-21T08:26:53.910Z,5.97
2023-02-21T08:29:21.068Z,6.20
2023-02-21T08:31:48.388Z,6.40
2023-02-21T08:34:18.545Z,6.17
2023-02-21T08:36:45.325Z,6.07
2023-02-21T08:39:12.344Z,6.20
2023-02-21T08:41:44.572Z,7.33
2023-02-21T08:44:16.388Z,5.57
2023-02-21T08:46:43.687Z,5.80
2023-02-21T08:49:10.747Z,4.87
2023-02-21T08:51:38.021Z,5.00
2023-02-21T08:54:04.662Z,5.27
2023-02-21T08:56:31.502Z,4.97
2023-02-21T08:58:58.583Z,5.40
2023-02-21T09:01:30.646Z,5.40
2023-02-21T09:03:57.319Z,4.47
2023-02-21T09:06:23.986Z,5.10
2023-02-21T09:08:51.021Z,4.53
2023-02-21T09:11:17.757Z,4.37
2023-02-21T09:13:44.353Z,4.73
2023-02-21T09:16:11.080Z,4.77
2023-02-21T09:18:37.723Z,4.83
2023-02-21T09:21:06.141Z,3.70
2023-02-21T09:23:35.562Z,4.17
2023-02-21T09:26:02.290Z,4.57
2023-02-21T09:28:31.397Z,4.23
2023-02-21T09:30:58.756Z,4.10
2023-02-21T09:33:25.779Z,4.30
2023-02-21T09:35:54.312Z,4.33
2023-02-21T09:38:24.934Z,4.50
2023-02-21T09:41:10.079Z,4.70
2023-02-21T09:43:49.171Z,4.60
2023-02-21T09:46:30.798Z,4.43
2023-02-21T09:56:05.174Z,4.30
2023-02-21T09:58:42.335Z,4.90
2023-02-21T10:02:16.263Z,5.00
2023-02-21T10:13:30.269Z,4.60
2023-02-21T10:31:37.016Z,4.90
2023-02-21T10:34:32.826Z,5.13
2023-02-21T10:45:40.918Z,5.30
2023-02-21T11:20:13.151Z,4.20
2023-02-21T12:00:13.972Z,3.70
2023-02-21T12:03:13.671Z,3.77
2023-02-21T12:06:02.667Z,3.37
2023-02-21T12:08:38.963Z,3.30
2023-02-21T12:11:14.953Z,3.50
2023-02-21T12:14:00.402Z,3.50
2023-02-21T12:16:46.604Z,3.80
2023-02-21T12:19:14.362Z,3.87
2023-02-21T12:21:55.421Z,3.73
2023-02-21T12:24:48.804Z,3.80
2023-02-21T12:27:45.709Z,3.60
2023-02-21T12:30:38.010Z,3.13
2023-02-21T12:33:28.081Z,3.67
2023-02-21T12:36:05.975Z,3.27
2023-02-21T12:39:16.758Z,3.03
2023-02-21T12:42:02.293Z,3.70
2023-02-21T12:44:46.593Z,3.70
2023-02-21T12:47:23.686Z,4.00
2023-02-21T12:50:25.336Z,3.73
2023-02-21T12:53:16.349Z,3.47
2023-02-21T12:55:48.111Z,3.53
2023-02-21T12:58:28.671Z,3.87
2023-02-21T13:01:21.079Z,3.73
2023-02-21T13:04:00.219Z,4.07
2023-02-21T13:06:32.716Z,3.90
2023-02-21T13:09:28.742Z,3.53
2023-02-21T13:12:18.516Z,3.53
2023-02-21T13:14:47.415Z,3.60
2023-02-21T13:17:17.023Z,3.70
2023-02-21T13:19:57.895Z,3.63
2023-02-21T13:22:55.455Z,3.77
2023-02-21T13:25:31.217Z,3.63
2023-02-21T13:28:19.547Z,3.80
2023-02-21T13:30:57.829Z,3.73
2023-02-21T13:33:27.267Z,3.60
2023-02-21T13:35:58.407Z,3.93
2023-02-21T13:38:29.351Z,3.53
2023-02-21T13:41:10.745Z,3.30
2023-02-21T13:43:51.485Z,3.57
2023-02-21T13:46:31.196Z,3.83
2023-02-21T13:49:36.000Z,3.57
2023-02-21T13:52:15.321Z,3.20
2023-02-21T13:55:21.953Z,3.60
2023-02-21T13:57:50.452Z,3.40
2023-02-21T14:00:32.184Z,3.77
2023-02-21T14:03:20.621Z,3.27
2023-02-21T14:05:48.259Z,3.70
2023-02-21T14:08:31.788Z,3.30
2023-02-21T14:11:07.977Z,3.73
2023-02-21T14:13:36.769Z,3.03
2023-02-21T14:16:09.714Z,3.47
2023-02-21T14:18:39.872Z,3.27
2023-02-21T14:21:23.203Z,3.47
2023-02-21T14:23:56.748Z,3.77
2023-02-21T14:26:54.364Z,3.57
2023-02-21T14:29:41.324Z,3.17
2023-02-21T14:32:08.814Z,3.07
2023-02-21T14:34:51.145Z,2.97
2023-02-21T14:37:41.232Z,2.67
2023-02-21T14:40:09.920Z,3.00
2023-02-21T14:42:44.553Z,3.37
2023-02-21T14:45:11.403Z,3.00
2023-02-21T14:48:16.007Z,3.10
2023-02-21T14:51:09.280Z,2.70
2023-02-21T14:54:01.520Z,3.00
2023-02-21T14:56:40.957Z,2.73
2023-02-21T14:59:11.246Z,2.73
2023-02-21T15:02:01.790Z,2.67
2023-02-21T15:04:28.954Z,2.80
2023-02-21T15:07:20.654Z,2.33
2023-02-21T15:10:24.982Z,2.50
2023-02-21T15:13:01.241Z,3.00
2023-02-21T15:15:48.458Z,2.70
2023-02-21T15:18:26.565Z,2.53
2023-02-21T15:21:07.436Z,2.63
2023-02-21T15:23:35.044Z,2.63
2023-02-21T15:26:22.155Z,2.70
2023-02-21T15:29:06.165Z,2.20
2023-02-21T15:31:37.067Z,2.10
2023-02-21T15:34:04.190Z,2.13
2023-02-21T15:36:33.348Z,2.70
2023-02-21T15:39:15.570Z,2.00
2023-02-21T15:41:46.694Z,2.60
2023-02-21T15:44:24.799Z,2.47
2023-02-21T15:47:02.188Z,2.47
2023-02-21T15:49:33.658Z,2.27
2023-02-21T15:52:02.632Z,2.37
2023-02-21T15:54:37.053Z,2.10
2023-02-21T15:57:28.995Z,2.47
2023-02-21T16:00:26.665Z,2.13
2023-02-21T16:03:13.768Z,2.67
2023-02-21T16:05:41.333Z,1.90
2023-02-21T16:08:17.284Z,1.90
2023-02-21T16:10:45.974Z,2.00
2023-02-21T16:13:15.035Z,1.73
2023-02-21T16:15:43.702Z,2.00
2023-02-21T16:18:18.697Z,2.03
2023-02-21T16:20:46.252Z,2.10
2023-02-21T16:23:33.868Z,2.30
2023-02-21T16:26:27.584Z,2.47
2023-02-21T16:28:58.698Z,2.00
2023-02-21T16:31:29.668Z,2.40
2023-02-21T16:34:00.171Z,2.50
2023-02-21T16:36:33.354Z,2.07
2023-02-21T16:39:00.407Z,1.90
2023-02-21T16:41:27.886Z,2.30
2023-02-21T16:43:55.114Z,2.90
2023-02-21T16:46:29.946Z,2.60
2023-02-21T16:48:59.102Z,2.70
2023-02-21T16:51:26.201Z,2.83
2023-02-21T16:53:53.456Z,3.03
2023-02-21T16:56:20.569Z,3.93
2023-02-21T16:58:51.534Z,3.00
2023-02-21T17:01:26.394Z,3.80
2023-02-21T17:03:54.099Z,3.30
2023-02-21T17:06:24.250Z,3.40
2023-02-21T17:08:52.720Z,3.57
2023-02-21T17:11:20.295Z,4.40
2023-02-21T17:13:47.552Z,4.07
2023-02-21T17:16:15.240Z,3.87
2023-02-21T17:18:44.418Z,4.40
2023-02-21T17:21:12.072Z,6.67
2023-02-21T17:23:39.830Z,3.80
2023-02-21T17:26:07.191Z,4.67
2023-02-21T17:28:35.054Z,4.20
2023-02-21T17:31:02.552Z,4.27
2023-02-21T17:33:30.371Z,4.43
2023-02-21T17:35:57.626Z,4.23
2023-02-21T17:38:27.924Z,3.90
2023-02-21T17:40:55.103Z,4.27
2023-02-21T17:43:22.273Z,4.43
2023-02-21T17:45:49.596Z,5.70
2023-02-21T17:48:17.071Z,5.53
2023-02-21T17:50:44.418Z,5.27
2023-02-21T17:53:11.679Z,5.17
2023-02-21T17:55:38.818Z,12.83
2023-02-21T17:58:06.691Z,14.50
2023-02-21T18:00:37.102Z,14.47
2023-02-21T18:03:07.136Z,16.23
2023-02-21T18:05:34.267Z,14.23
2023-02-21T18:08:07.697Z,14.63
2023-02-21T18:10:39.833Z,13.47
2023-02-21T18:13:07.515Z,12.97
2023-02-21T18:15:46.684Z,12.87
2023-02-21T18:18:15.005Z,11.30
2023-02-21T18:20:49.360Z,11.37
2023-02-21T18:23:17.009Z,9.97
2023-02-21T18:25:44.875Z,10.33
2023-02-21T18:28:12.442Z,8.63
2023-02-21T18:30:39.704Z,9.43
2023-02-21T18:33:10.320Z,9.00
2023-02-21T18:35:40.440Z,9.30
2023-02-21T18:38:07.802Z,9.13
2023-02-21T18:40:34.923Z,9.80
2023-02-21T18:43:02.914Z,10.53
2023-02-21T18:45:33.238Z,10.63
2023-02-21T18:50:54.427Z,10.57
2023-02-21T18:53:23.942Z,11.60
2023-02-21T18:55:51.435Z,11.00
2023-02-21T18:58:18.803Z,10.20
2023-02-21T19:00:47.605Z,10.73
2023-02-21T19:03:17.759Z,11.27
2023-02-21T19:05:45.051Z,11.13
2023-02-21T19:08:12.207Z,11.30
2023-02-21T19:10:39.361Z,10.77
2023-02-21T19:13:06.498Z,10.87
2023-02-21T19:15:34.063Z,10.47
2023-02-21T19:18:01.218Z,11.30
2023-02-21T19:20:28.578Z,10.07
2023-02-21T20:18:46.276Z,15.20
2023-02-21T20:21:21.208Z,15.33
2023-02-21T20:23:49.188Z,15.30
2023-02-21T20:26:34.802Z,14.60
2023-02-21T20:29:02.740Z,12.33
2023-02-21T20:31:32.974Z,13.03
2023-02-21T20:34:03.389Z,13.17
2023-02-21T20:36:36.657Z,13.00
2023-02-21T20:39:05.669Z,12.67
2023-02-21T20:41:35.869Z,12.37
2023-02-21T20:44:03.250Z,13.20
2023-02-21T20:46:35.277Z,13.70
2023-02-21T20:49:03.792Z,12.90
2023-02-21T20:51:39.347Z,11.60
2023-02-21T20:54:07.479Z,12.50
2023-02-21T20:56:37.715Z,11.70
2023-02-21T20:59:10.214Z,12.40
2023-02-21T21:01:37.611Z,12.33
2023-02-21T21:04:08.449Z,12.33
2023-02-21T21:07:10.776Z,12.07
2023-02-21T21:09:42.232Z,11.50
2023-02-21T21:12:17.677Z,11.03
2023-02-21T21:14:49.230Z,11.10
2023-02-21T21:17:27.030Z,12.07
2023-02-21T21:19:57.454Z,10.77
2023-02-21T21:22:33.932Z,11.00
2023-02-21T21:25:01.481Z,10.27
2023-02-21T21:27:28.944Z,8.73
2023-02-21T21:29:56.193Z,9.77
2023-02-21T21:32:24.574Z,8.63
2023-02-21T21:34:56.957Z,8.97
2023-02-21T21:37:30.319Z,7.00
2023-02-21T21:39:57.800Z,7.50
2023-02-21T21:42:29.678Z,6.90
2023-02-21T21:44:57.646Z,7.20
2023-02-21T21:47:28.873Z,7.47
2023-02-21T21:50:08.506Z,8.07
2023-02-21T21:52:36.184Z,8.73
2023-02-21T21:55:03.625Z,8.20
2023-02-21T21:57:31.160Z,9.53
2023-02-21T21:59:58.453Z,9.47
2023-02-21T22:02:25.749Z,9.13
2023-02-21T22:04:53.675Z,9.20
2023-02-21T22:07:21.035Z,9.13
2023-02-21T22:09:47.881Z,9.10
2023-02-21T22:12:18.809Z,8.77
2023-02-21T22:14:45.968Z,10.73
2023-02-21T22:17:13.210Z,10.33
2023-02-21T22:19:43.639Z,10.23
2023-02-21T22:22:16.189Z,9.37
2023-02-21T22:24:46.536Z,11.23
2023-02-21T22:27:14.071Z,11.27
2023-02-21T22:29:41.659Z,12.00
2023-02-21T22:32:08.880Z,9.83
2023-02-21T22:34:36.382Z,10.20
2023-02-21T22:37:04.441Z,9.80
2023-02-21T22:39:31.583Z,9.17
2023-02-21T22:42:06.825Z,9.93
2023-02-21T22:44:36.638Z,9.87
2023-02-21T22:47:03.789Z,8.87
2023-02-21T22:49:31.461Z,10.00
2023-02-21T22:51:58.809Z,10.20
2023-02-21T22:54:26.993Z,12.37
2023-02-21T22:56:55.262Z,11.07
2023-02-21T22:59:26.683Z,10.47
2023-02-21T23:01:54.061Z,10.10
2023-02-21T23:04:27.202Z,10.47
2023-02-21T23:06:58.959Z,9.77
2023-02-21T23:09:27.558Z,9.73
2023-02-21T23:11:58.635Z,9.03
2023-02-21T23:14:26.433Z,8.93
2023-02-21T23:16:57.466Z,8.80
2023-02-21T23:19:26.638Z,9.17
2023-02-21T23:21:54.218Z,10.33
2023-02-21T23:24:22.622Z,12.07
2023-02-21T23:26:51.146Z,12.40
2023-02-21T23:29:21.023Z,9.60
2023-02-21T23:31:48.451Z,9.47
2023-02-21T23:34:15.992Z,9.77
2023-02-21T23:36:44.591Z,9.63
2023-02-21T23:39:15.465Z,9.80
2023-02-21T23:41:49.130Z,9.67
2023-02-21T23:44:16.583Z,9.13
2023-02-21T23:46:44.955Z,9.93
2023-02-21T23:49:15.946Z,10.03
2023-02-21T23:51:46.861Z,10.13
2023-02-21T23:54:15.279Z,9.47
2023-02-21T23:56:45.278Z,9.93
2023-02-21T23:59:15.661Z,9.63
